Time;durP1;ratioP1;P1;durP2;ratioP2;P2;SDS_P1;SDS_P2;PMS_P1;PMS_P2;Temp;Humidity;BMP_temperature;BMP_pressure;BME280_temperature;BME280_humidity;BME280_pressure;Samples;Min_cycle;Max_cycle;Signal;HPM_P1;HPM_P2
2023/05/03 04:02:39;;;;;;;3.43;3.07;;;12.10;76.60;;;;;;5115564;22;20483;-75
2023/05/03 04:05:06;;;;;;;4.27;3.40;;;12.10;76.70;;;;;;5035750;28;20459;-75
2023/05/03 04:07:33;;;;;;;4.40;3.83;;;12.10;77.00;;;;;;5035703;28;20447;-75
2023/05/03 04:10:00;;;;;;;3.90;3.40;;;12.00;77.10;;;;;;5035885;28;20513;-75
2023/05/03 04:12:26;;;;;;;3.70;3.40;;;12.00;77.30;;;;;;5035208;28;20939;-75
2023/05/03 04:14:53;;;;;;;4.17;3.77;;;11.90;77.40;;;;;;5036072;28;20569;-75
2023/05/03 04:17:20;;;;;;;3.90;3.50;;;11.90;77.50;;;;;;5058958;23;20942;-75
2023/05/03 04:19:48;;;;;;;4.13;3.73;;;12.00;77.40;;;;;;5034669;28;20989;-75
2023/05/03 04:22:15;;;;;;;3.63;3.30;;;12.00;77.40;;;;;;5034607;28;20999;-75
2023/05/03 04:24:42;;;;;;;3.97;3.63;;;11.90;77.50;;;;;;5034113;28;21030;-75
2023/05/03 04:27:10;;;;;;;4.73;3.80;;;12.00;77.40;;;;;;5034628;28;20606;-75
2023/05/03 04:29:37;;;;;;;3.40;3.10;;;12.00;77.40;;;;;;5034638;28;20439;-74
2023/05/03 04:32:05;;;;;;;4.20;3.63;;;12.00;77.40;;;;;;5034560;28;20448;-77
2023/05/03 04:34:32;;;;;;;3.67;3.37;;;11.90;77.60;;;;;;5034290;28;20949;-76
2023/05/03 04:37:00;;;;;;;4.83;3.73;;;11.90;77.90;;;;;;5034506;28;20474;-76
2023/05/03 04:39:27;;;;;;;3.63;3.33;;;11.90;77.90;;;;;;5034479;28;20455;-76
2023/05/03 04:41:53;;;;;;;3.57;3.27;;;11.90;77.90;;;;;;5034371;28;20479;-77
2023/05/03 04:44:21;;;;;;;4.00;3.17;;;11.90;78.00;;;;;;5034436;28;20517;-77
2023/05/03 04:46:48;;;;;;;3.93;3.53;;;11.90;78.00;;;;;;5034438;28;20475;-77
2023/05/03 04:49:16;;;;;;;3.70;3.23;;;11.90;77.70;;;;;;5034422;28;20811;-76
2023/05/03 04:51:43;;;;;;;3.30;3.00;;;11.90;78.10;;;;;;5034323;28;20879;-77
2023/05/03 04:54:11;;;;;;;4.07;3.47;;;11.80;78.60;;;;;;5034262;28;20859;-77
2023/05/03 04:56:37;;;;;;;4.60;3.40;;;11.90;78.60;;;;;;5033890;28;20497;-76
2023/05/03 04:59:04;;;;;;;4.37;3.97;;;12.00;78.50;;;;;;5034213;28;20444;-75
2023/05/03 05:01:31;;;;;;;5.00;4.00;;;12.00;78.30;;;;;;5033889;28;20975;-77
2023/05/03 05:03:58;;;;;;;4.73;3.73;;;12.00;78.40;;;;;;5034120;28;20446;-77
2023/05/03 05:06:24;;;;;;;4.63;3.77;;;12.10;78.30;;;;;;5033979;28;20466;-77
2023/05/03 05:08:51;;;;;;;4.70;3.77;;;12.10;78.10;;;;;;5033930;28;20439;-77
2023/05/03 05:11:21;;;;;;;3.90;3.50;;;12.10;78.20;;;;;;5033912;28;20451;-77
2023/05/03 05:13:47;;;;;;;4.10;3.23;;;12.10;78.00;;;;;;5033857;28;20447;-77
2023/05/03 05:16:14;;;;;;;4.47;4.07;;;12.20;78.10;;;;;;5033646;28;20482;-76
2023/05/03 05:18:41;;;;;;;3.80;3.30;;;12.20;78.10;;;;;;5033790;28;20443;-77
2023/05/03 05:21:07;;;;;;;3.40;3.10;;;12.40;77.70;;;;;;5034004;28;20443;-77
2023/05/03 05:23:35;;;;;;;3.83;3.43;;;12.40;77.50;;;;;;5033665;28;20540;-77
2023/05/03 05:26:01;;;;;;;4.40;4.00;;;12.30;77.40;;;;;;5033575;28;20471;-76
2023/05/03 05:28:29;;;;;;;4.03;3.63;;;12.40;77.60;;;;;;5033322;28;20851;-78
2023/05/03 05:30:56;;;;;;;4.57;3.93;;;12.50;77.50;;;;;;5033669;28;20488;-78
2023/05/03 05:33:23;;;;;;;4.70;3.90;;;12.50;77.20;;;;;;5033484;28;20444;-77
2023/05/03 05:35:50;;;;;;;4.03;3.43;;;12.60;77.30;;;;;;5033536;28;20471;-77
2023/05/03 05:38:17;;;;;;;4.33;3.93;;;12.60;77.20;;;;;;5032885;28;20455;-78
2023/05/03 05:40:44;;;;;;;4.57;4.03;;;12.50;77.40;;;;;;5033312;28;20521;-77
2023/05/03 05:43:10;;;;;;;4.27;3.87;;;12.60;77.30;;;;;;5033599;28;20475;-76
2023/05/03 05:45:38;;;;;;;3.60;3.30;;;12.60;77.40;;;;;;5033099;28;20451;-77
2023/05/03 05:48:05;;;;;;;5.37;3.97;;;12.70;77.20;;;;;;5033183;28;20498;-76
2023/05/03 05:50:32;;;;;;;6.10;4.23;;;12.80;76.80;;;;;;5032951;28;20932;-77
2023/05/03 05:52:59;;;;;;;3.63;3.33;;;12.80;77.00;;;;;;5033302;28;20444;-77
2023/05/03 05:55:25;;;;;;;4.40;3.80;;;12.80;77.20;;;;;;5033156;28;20914;-76
2023/05/03 05:57:52;;;;;;;4.30;3.90;;;12.80;77.30;;;;;;5032981;28;20497;-77
2023/05/03 06:00:20;;;;;;;3.80;3.50;;;12.70;76.90;;;;;;5033056;28;20452;-77
2023/05/03 06:02:48;;;;;;;4.07;3.73;;;12.80;77.60;;;;;;5032944;28;20879;-76
2023/05/03 06:05:15;;;;;;;4.27;3.87;;;12.90;77.60;;;;;;5033031;28;20444;-77
2023/05/03 06:07:41;;;;;;;3.87;3.30;;;13.00;77.30;;;;;;5032570;28;21008;-77
2023/05/03 06:10:09;;;;;;;4.40;4.00;;;13.00;77.30;;;;;;5032968;28;20498;-77
2023/05/03 06:12:36;;;;;;;3.70;3.40;;;13.00;77.30;;;;;;5032805;28;20443;-76
2023/05/03 06:15:03;;;;;;;5.77;4.07;;;12.90;77.70;;;;;;5032797;28;20534;-75
2023/05/03 06:17:30;;;;;;;4.87;4.20;;;12.70;77.50;;;;;;5032683;28;20594;-75
2023/05/03 06:19:58;;;;;;;3.73;3.30;;;12.50;78.60;;;;;;5032869;28;20450;-76
2023/05/03 06:22:25;;;;;;;3.93;3.43;;;12.80;78.60;;;;;;5032757;28;20565;-74
2023/05/03 06:24:51;;;;;;;4.83;4.20;;;13.10;77.80;;;;;;5032730;28;20458;-76
2023/05/03 06:27:18;;;;;;;5.43;4.93;;;13.20;77.30;;;;;;5032585;28;20527;-77
2023/05/03 06:29:48;;;;;;;4.13;3.73;;;13.40;76.90;;;;;;5032509;28;20482;-77
2023/05/03 06:32:15;;;;;;;4.77;4.30;;;13.30;77.30;;;;;;5033456;28;20835;-77
2023/05/03 06:34:42;;;;;;;4.93;4.53;;;13.30;77.10;;;;;;5032729;28;20455;-76
2023/05/03 06:37:10;;;;;;;4.67;4.27;;;13.00;77.60;;;;;;5032361;28;20885;-76
2023/05/03 06:39:36;;;;;;;4.20;3.80;;;12.60;78.70;;;;;;5033064;28;20527;-74
2023/05/03 06:42:03;;;;;;;4.63;4.23;;;12.40;79.50;;;;;;5033414;28;20452;-77
2023/05/03 06:44:30;;;;;;;4.50;4.10;;;12.50;79.40;;;;;;5032507;28;20436;-76
2023/05/03 06:46:56;;;;;;;4.60;3.67;;;12.60;79.50;;;;;;5032514;28;20467;-77
2023/05/03 06:49:23;;;;;;;4.67;4.27;;;12.90;79.10;;;;;;5035922;28;20443;-75
2023/05/03 06:51:50;;;;;;;4.73;4.10;;;13.00;78.40;;;;;;5036433;28;20443;-76
2023/05/03 06:54:18;;;;;;;4.83;4.43;;;13.30;78.30;;;;;;5036465;28;20443;-76
2023/05/03 06:56:46;;;;;;;4.57;3.80;;;13.60;77.10;;;;;;5036235;28;20510;-76
2023/05/03 06:59:12;;;;;;;4.80;4.40;;;13.40;76.20;;;;;;5036305;28;20503;-76
2023/05/03 07:01:39;;;;;;;4.10;3.70;;;13.20;77.60;;;;;;5036240;28;20493;-76
2023/05/03 07:04:05;;;;;;;5.60;4.87;;;13.60;77.40;;;;;;5036236;28;20483;-76
2023/05/03 07:06:32;;;;;;;4.87;4.43;;;13.60;76.80;;;;;;5036105;28;20888;-76
2023/05/03 07:08:59;;;;;;;4.90;4.40;;;13.30;77.40;;;;;;5036178;28;20501;-76
2023/05/03 07:11:27;;;;;;;4.67;4.27;;;13.30;78.30;;;;;;5036281;28;20923;-76
2023/05/03 07:13:54;;;;;;;5.50;4.43;;;13.50;77.70;;;;;;5036132;28;20455;-76
2023/05/03 07:16:24;;;;;;;4.50;4.10;;;13.60;76.90;;;;;;5035535;28;20529;-75
2023/05/03 07:18:51;;;;;;;5.50;5.00;;;13.50;77.00;;;;;;5035766;28;21066;-76
2023/05/03 07:21:17;;;;;;;4.97;4.57;;;13.60;77.10;;;;;;5035947;28;20452;-76
2023/05/03 07:23:44;;;;;;;6.20;4.77;;;13.60;76.60;;;;;;5035568;28;21042;-76
2023/05/03 07:26:11;;;;;;;4.53;4.13;;;14.00;76.20;;;;;;5035648;28;20458;-76
2023/05/03 07:28:39;;;;;;;4.60;4.20;;;13.90;76.00;;;;;;5035494;28;20944;-76
2023/05/03 07:31:05;;;;;;;5.80;4.60;;;13.90;77.00;;;;;;5035778;28;20447;-76
2023/05/03 07:33:36;;;;;;;4.87;4.47;;;14.30;75.70;;;;;;5035843;28;20600;-76
2023/05/03 07:36:02;;;;;;;4.33;3.93;;;14.60;74.70;;;;;;5035787;28;20467;-76
2023/05/03 07:38:29;;;;;;;4.47;4.07;;;15.00;73.90;;;;;;5035734;28;20443;-76
2023/05/03 07:40:56;;;;;;;4.90;4.40;;;15.50;73.10;;;;;;5035689;28;20452;-76
2023/05/03 07:43:23;;;;;;;5.50;5.00;;;15.50;72.80;;;;;;5035283;28;21053;-76
2023/05/03 07:45:51;;;;;;;3.90;3.50;;;15.40;73.00;;;;;;5035654;28;20811;-77
2023/05/03 07:48:18;;;;;;;4.83;4.43;;;15.60;72.90;;;;;;5035911;28;20443;-76
2023/05/03 07:50:45;;;;;;;4.20;3.80;;;15.60;72.60;;;;;;5035409;28;20546;-76
2023/05/03 07:53:12;;;;;;;4.93;4.53;;;15.60;73.30;;;;;;5035535;28;20973;-76
2023/05/03 07:55:38;;;;;;;4.60;4.07;;;15.60;72.70;;;;;;5035416;28;20506;-76
2023/05/03 07:58:05;;;;;;;4.37;3.97;;;15.70;71.40;;;;;;5035375;28;20439;-76
2023/05/03 08:00:32;;;;;;;3.83;3.43;;;15.30;72.50;;;;;;5034509;28;20451;-76
2023/05/03 08:03:02;;;;;;;5.67;4.57;;;15.20;73.30;;;;;;5035252;28;20471;-76
2023/05/03 08:05:29;;;;;;;4.80;4.40;;;15.10;73.60;;;;;;5035544;28;20555;-76
2023/05/03 08:07:55;;;;;;;5.47;5.03;;;15.00;73.80;;;;;;5035235;28;20558;-76
2023/05/03 08:10:22;;;;;;;4.63;4.23;;;15.00;73.50;;;;;;5035056;28;20505;-76
2023/05/03 08:12:49;;;;;;;5.27;4.77;;;15.00;73.60;;;;;;5035170;28;20517;-76
2023/05/03 08:15:16;;;;;;;6.43;4.50;;;14.90;73.50;;;;;;5035237;28;20517;-76
2023/05/03 08:17:45;;;;;;;4.40;4.00;;;15.10;74.60;;;;;;5034714;28;20480;-77
2023/05/03 08:20:14;;;;;;;4.43;4.03;;;15.40;73.20;;;;;;5035089;28;20499;-76
2023/05/03 08:22:41;;;;;;;4.77;4.37;;;15.40;74.10;;;;;;5034752;28;20448;-76
2023/05/03 08:25:08;;;;;;;4.33;3.93;;;15.70;73.40;;;;;;5035083;28;20498;-77
2023/05/03 08:27:36;;;;;;;4.10;3.80;;;16.00;71.70;;;;;;5034921;28;20525;-76
2023/05/03 08:30:03;;;;;;;4.83;4.40;;;15.80;71.00;;;;;;5034747;28;20586;-76
2023/05/03 08:32:30;;;;;;;5.77;5.27;;;15.10;72.90;;;;;;5034774;28;20455;-76
2023/05/03 08:34:56;;;;;;;5.03;4.00;;;15.00;73.90;;;;;;5034957;28;20535;-76
2023/05/03 08:37:24;;;;;;;4.73;4.27;;;15.30;75.00;;;;;;5035126;28;20475;-76
2023/05/03 08:39:51;;;;;;;5.07;4.67;;;15.70;74.00;;;;;;5034568;28;20447;-76
2023/05/03 08:42:18;;;;;;;4.33;3.93;;;15.90;72.30;;;;;;5034577;28;20538;-76
2023/05/03 08:44:48;;;;;;;5.10;4.67;;;16.00;72.10;;;;;;5034396;28;20483;-76
2023/05/03 08:47:15;;;;;;;4.60;4.20;;;16.20;70.70;;;;;;5034024;28;20838;-76
2023/05/03 08:49:43;;;;;;;5.10;4.70;;;16.20;71.60;;;;;;5034529;28;20454;-76
2023/05/03 08:52:10;;;;;;;4.67;3.87;;;16.00;71.60;;;;;;5034010;28;20495;-77
2023/05/03 08:54:39;;;;;;;4.50;4.10;;;16.10;70.80;;;;;;5033958;28;20446;-76
2023/05/03 08:57:10;;;;;;;4.57;4.13;;;16.60;70.30;;;;;;5033954;28;20988;-77
2023/05/03 08:59:47;;;;;;;4.03;3.73;;;17.00;69.60;;;;;;5034340;28;20481;-77
2023/05/03 09:02:14;;;;;;;4.47;3.50;;;17.20;68.80;;;;;;5034461;28;20487;-77
2023/05/03 09:04:41;;;;;;;3.83;3.53;;;17.50;69.40;;;;;;5033786;28;20545;-77
2023/05/03 09:07:08;;;;;;;4.90;4.50;;;17.80;67.60;;;;;;5034167;28;20533;-77
2023/05/03 09:09:35;;;;;;;3.90;3.60;;;17.70;68.10;;;;;;5034058;28;20447;-76
2023/05/03 09:12:03;;;;;;;4.30;3.90;;;17.90;66.90;;;;;;5034347;28;20445;-77
2023/05/03 09:14:30;;;;;;;3.90;3.53;;;17.90;67.70;;;;;;5033987;28;20450;-77
2023/05/03 09:17:14;;;;;;;3.53;3.20;;;18.20;68.60;;;;;;5033459;28;20508;-77
2023/05/03 09:19:51;;;;;;;4.10;3.77;;;18.50;67.80;;;;;;5033956;28;20443;-77
2023/05/03 09:22:18;;;;;;;3.33;3.03;;;18.20;63.90;;;;;;5033908;28;20427;-77
2023/05/03 09:24:52;;;;;;;3.33;3.03;;;18.30;66.50;;;;;;5033661;28;20483;-77
2023/05/03 09:27:21;;;;;;;4.10;3.70;;;18.10;66.00;;;;;;5033726;28;20481;-76
2023/05/03 09:29:48;;;;;;;3.93;2.83;;;18.20;67.30;;;;;;5033697;28;20816;-77
2023/05/03 09:32:15;;;;;;;3.30;3.00;;;18.10;66.00;;;;;;5033444;28;21003;-77
2023/05/03 09:34:42;;;;;;;3.97;3.50;;;18.10;66.40;;;;;;5033609;28;20485;-76
2023/05/03 09:37:09;;;;;;;3.43;3.10;;;17.70;65.90;;;;;;5033597;28;20463;-77
2023/05/03 09:39:36;;;;;;;3.67;3.37;;;17.70;68.10;;;;;;5033523;28;20452;-76
2023/05/03 09:42:11;;;;;;;3.00;2.70;;;17.90;66.80;;;;;;5033522;28;20448;-77
2023/05/03 09:44:44;;;;;;;3.83;3.07;;;17.90;66.00;;;;;;5033420;28;20473;-77
2023/05/03 09:47:11;;;;;;;3.60;2.97;;;17.80;66.90;;;;;;5033375;28;20475;-76
2023/05/03 09:49:39;;;;;;;3.70;3.10;;;17.70;66.40;;;;;;5033866;28;20452;-76
2023/05/03 09:52:06;;;;;;;2.80;2.60;;;17.60;66.50;;;;;;5033357;28;20458;-76
2023/05/03 09:54:34;;;;;;;3.40;3.10;;;17.50;66.60;;;;;;5033192;28;20463;-76
2023/05/03 09:57:03;;;;;;;3.40;2.93;;;17.70;67.70;;;;;;5033174;28;20554;-76
2023/05/03 09:59:30;;;;;;;4.20;3.70;;;17.80;66.00;;;;;;5033244;28;20454;-76
2023/05/03 10:02:01;;;;;;;4.33;3.17;;;17.90;67.10;;;;;;5033173;28;20502;-77
2023/05/03 10:04:29;;;;;;;3.90;3.17;;;18.00;67.70;;;;;;5033123;28;20471;-76
2023/05/03 10:06:59;;;;;;;4.93;3.20;;;18.00;66.50;;;;;;5033071;28;20475;-76
2023/05/03 10:09:32;;;;;;;2.90;2.60;;;18.20;66.30;;;;;;5032785;28;20979;-76
2023/05/03 10:12:01;;;;;;;2.77;2.50;;;18.50;65.00;;;;;;5033122;28;20436;-76
2023/05/03 10:14:28;;;;;;;3.10;2.70;;;18.40;64.20;;;;;;5033036;28;20479;-76
2023/05/03 10:17:00;;;;;;;3.33;3.03;;;18.30;64.70;;;;;;5056495;23;21007;-74
2023/05/03 10:19:34;;;;;;;4.43;3.00;;;18.40;64.40;;;;;;5033562;28;20485;-74
2023/05/03 10:22:04;;;;;;;3.17;2.87;;;18.50;63.80;;;;;;5033704;28;20471;-74
2023/05/03 10:24:31;;;;;;;4.37;3.40;;;18.60;63.70;;;;;;5033652;28;20519;-74
2023/05/03 10:26:58;;;;;;;6.60;3.20;;;18.80;63.70;;;;;;5033647;28;20463;-74
2023/05/03 10:30:01;;;;;;;2.87;2.30;;;18.90;65.20;;;;;;5034021;28;20505;-74
2023/05/03 10:32:31;;;;;;;3.10;2.63;;;19.00;62.50;;;;;;5033303;28;20905;-74
2023/05/03 10:35:01;;;;;;;4.10;2.83;;;19.10;63.70;;;;;;5033604;28;20497;-74
2023/05/03 10:37:28;;;;;;;3.30;2.93;;;19.00;62.20;;;;;;5033467;28;20555;-74
2023/05/03 10:39:55;;;;;;;3.33;3.03;;;19.10;62.50;;;;;;5033562;28;20450;-74
2023/05/03 10:42:24;;;;;;;3.70;3.13;;;19.00;62.20;;;;;;5033536;28;20448;-74
2023/05/03 10:44:51;;;;;;;3.00;2.70;;;18.60;62.60;;;;;;5033568;28;20534;-75
2023/05/03 10:47:20;;;;;;;3.10;2.70;;;18.40;62.60;;;;;;5033466;28;20479;-73
2023/05/03 10:50:12;;;;;;;3.43;3.03;;;18.30;62.70;;;;;;5033966;28;20509;-75
2023/05/03 10:52:48;;;;;;;3.17;2.87;;;18.10;64.40;;;;;;5033700;28;20456;-74
2023/05/03 10:55:17;;;;;;;2.80;2.60;;;18.30;62.40;;;;;;5033817;28;20446;-75
2023/05/03 10:57:45;;;;;;;2.43;2.20;;;18.50;62.00;;;;;;5034116;28;20972;-75
2023/05/03 11:00:15;;;;;;;2.73;2.53;;;18.70;62.90;;;;;;5033494;28;20899;-75
2023/05/03 11:02:56;;;;;;;2.87;2.67;;;18.90;60.90;;;;;;5034150;28;20447;-76
2023/05/03 11:05:26;;;;;;;3.20;2.90;;;18.90;60.80;;;;;;5033599;28;20557;-75
2023/05/03 11:08:08;;;;;;;3.10;2.80;;;18.80;61.60;;;;;;5033061;28;20878;-74
2023/05/03 11:10:34;;;;;;;2.80;2.43;;;18.70;62.10;;;;;;5033133;28;20440;-74
2023/05/03 11:13:01;;;;;;;4.77;3.10;;;18.70;61.40;;;;;;5032929;28;20451;-74
2023/05/03 11:15:28;;;;;;;2.73;2.37;;;18.90;62.00;;;;;;5034004;28;20506;-71
2023/05/03 11:17:55;;;;;;;4.10;2.60;;;19.10;60.70;;;;;;5032996;28;21007;-74
2023/05/03 11:20:21;;;;;;;3.50;2.43;;;19.30;61.60;;;;;;5033491;28;20510;-75
2023/05/03 11:22:48;;;;;;;3.07;2.77;;;19.40;60.40;;;;;;5033224;28;20505;-74
2023/05/03 11:25:16;;;;;;;3.80;2.70;;;19.60;61.60;;;;;;5032997;28;20479;-74
2023/05/03 11:27:45;;;;;;;2.90;2.57;;;19.60;58.80;;;;;;5032705;28;20540;-74
2023/05/03 11:30:13;;;;;;;2.80;2.50;;;19.30;59.80;;;;;;5033129;28;20798;-75
2023/05/03 11:32:40;;;;;;;2.70;2.40;;;19.30;61.00;;;;;;5033201;28;20970;-75
2023/05/03 11:35:07;;;;;;;2.73;1.90;;;19.40;60.00;;;;;;5033924;28;20962;-75
2023/05/03 11:37:34;;;;;;;2.40;2.17;;;19.40;60.60;;;;;;5036274;28;20478;-75
2023/05/03 11:40:01;;;;;;;2.60;2.10;;;19.70;59.50;;;;;;5036993;28;20881;-77
2023/05/03 11:42:29;;;;;;;2.73;2.50;;;19.90;58.40;;;;;;5036900;28;20455;-77
2023/05/03 11:44:56;;;;;;;2.63;2.10;;;19.80;58.70;;;;;;5036666;28;20525;-77
2023/05/03 11:47:23;;;;;;;2.63;2.30;;;19.80;57.40;;;;;;5036376;28;20467;-77
2023/05/03 11:49:53;;;;;;;3.00;2.50;;;19.60;56.20;;;;;;5036374;28;20447;-75
2023/05/03 11:52:22;;;;;;;3.20;2.20;;;19.30;59.90;;;;;;5035968;28;20856;-77
2023/05/03 11:54:48;;;;;;;2.50;2.10;;;19.40;58.70;;;;;;5036278;28;20448;-76
2023/05/03 11:57:15;;;;;;;2.37;2.17;;;19.60;58.20;;;;;;5035821;28;21042;-76
2023/05/03 11:59:43;;;;;;;2.50;2.20;;;20.00;57.40;;;;;;5036407;28;20883;-77
2023/05/03 12:02:13;;;;;;;2.70;1.97;;;20.20;58.60;;;;;;5036311;28;20547;-76
2023/05/03 12:04:41;;;;;;;3.03;2.27;;;20.40;57.90;;;;;;5036169;28;20847;-76
2023/05/03 12:07:08;;;;;;;2.40;1.93;;;20.10;56.20;;;;;;5036576;28;20475;-76
2023/05/03 12:09:35;;;;;;;2.63;2.17;;;19.70;57.10;;;;;;5035870;28;20447;-76
2023/05/03 12:12:03;;;;;;;2.60;2.20;;;19.60;56.90;;;;;;5035752;28;20454;-76
2023/05/03 12:14:58;;;;;;;2.60;2.17;;;19.60;55.90;;;;;;5035676;28;20455;-75
2023/05/03 12:17:36;;;;;;;3.00;2.70;;;20.00;55.90;;;;;;5035406;28;20566;-75
2023/05/03 12:20:19;;;;;;;2.27;1.70;;;19.70;56.80;;;;;;5035210;28;21035;-76
2023/05/03 12:22:48;;;;;;;2.67;1.83;;;19.80;58.40;;;;;;5035468;28;20436;-76
2023/05/03 12:25:15;;;;;;;2.40;2.13;;;19.90;55.30;;;;;;5034988;28;21018;-76
2023/05/03 12:27:42;;;;;;;2.13;1.87;;;19.90;54.20;;;;;;5035439;28;21011;-76
2023/05/03 12:30:11;;;;;;;2.60;2.40;;;19.90;55.10;;;;;;5035256;28;20501;-76
2023/05/03 12:32:38;;;;;;;2.30;2.07;;;19.70;56.10;;;;;;5034916;28;20455;-76
2023/05/03 12:35:05;;;;;;;2.33;1.90;;;19.80;57.00;;;;;;5035234;28;20454;-76
2023/05/03 12:37:32;;;;;;;2.33;1.90;;;19.90;55.80;;;;;;5034898;28;20813;-76
2023/05/03 12:39:58;;;;;;;2.97;2.30;;;20.20;56.10;;;;;;5034895;28;20941;-76
2023/05/03 12:42:26;;;;;;;2.57;2.30;;;20.20;56.90;;;;;;5035049;28;20444;-76
2023/05/03 12:44:56;;;;;;;2.00;1.40;;;20.20;56.40;;;;;;5034934;28;20487;-76
2023/05/03 12:47:24;;;;;;;3.60;2.60;;;20.30;56.20;;;;;;5034568;28;20526;-76
2023/05/03 12:49:51;;;;;;;2.70;1.97;;;20.20;54.10;;;;;;5034625;28;20967;-76
2023/05/03 12:52:18;;;;;;;2.47;1.50;;;20.20;53.70;;;;;;5034969;28;20538;-76
2023/05/03 12:54:45;;;;;;;2.50;1.93;;;20.60;54.50;;;;;;5034791;28;20792;-76
2023/05/03 12:57:13;;;;;;;2.30;2.03;;;20.40;53.60;;;;;;5035087;28;20471;-76
2023/05/03 12:59:40;;;;;;;3.07;1.73;;;20.30;53.40;;;;;;5034863;28;20867;-76
2023/05/03 13:02:07;;;;;;;2.30;1.60;;;20.40;53.60;;;;;;5034570;28;20490;-76
2023/05/03 13:04:35;;;;;;;2.73;1.60;;;20.60;54.40;;;;;;5034541;28;20486;-76
2023/05/03 13:07:02;;;;;;;2.20;1.53;;;20.80;52.90;;;;;;5034753;28;20554;-77
2023/05/03 13:09:30;;;;;;;2.10;1.30;;;20.70;52.60;;;;;;5034462;28;20448;-76
2023/05/03 13:11:58;;;;;;;2.80;1.80;;;20.90;51.80;;;;;;5034460;28;20527;-76
2023/05/03 13:14:25;;;;;;;2.67;1.43;;;21.20;53.10;;;;;;5034469;28;20884;-76
2023/05/03 13:16:51;;;;;;;2.80;1.87;;;21.60;51.40;;;;;;5033963;28;20487;-77
2023/05/03 13:19:18;;;;;;;2.23;1.67;;;21.90;51.90;;;;;;5034411;28;20860;-76
2023/05/03 13:21:48;;;;;;;1.90;1.43;;;22.00;51.40;;;;;;5034365;28;20452;-76
2023/05/03 13:24:15;;;;;;;2.77;1.80;;;21.70;51.60;;;;;;5034556;28;20526;-77
2023/05/03 13:26:42;;;;;;;2.00;1.40;;;21.40;50.40;;;;;;5034238;28;20472;-77
2023/05/03 13:29:09;;;;;;;2.47;1.80;;;20.80;51.40;;;;;;5034145;28;20534;-76
2023/05/03 13:31:35;;;;;;;2.80;2.30;;;20.40;50.70;;;;;;5034061;28;20443;-76
2023/05/03 13:34:02;;;;;;;2.27;1.60;;;20.20;52.30;;;;;;5034043;28;20517;-76
2023/05/03 13:36:29;;;;;;;2.10;1.47;;;20.40;52.20;;;;;;5033948;28;20880;-77
2023/05/03 13:38:57;;;;;;;2.13;1.47;;;20.80;52.20;;;;;;5034245;28;20522;-77
2023/05/03 13:41:24;;;;;;;2.20;1.83;;;21.20;50.70;;;;;;5033881;28;20471;-76
2023/05/03 13:43:51;;;;;;;2.03;1.60;;;21.30;50.70;;;;;;5033932;28;20447;-76
2023/05/03 13:46:18;;;;;;;2.20;1.50;;;21.20;49.80;;;;;;5033683;28;20499;-77
2023/05/03 13:48:45;;;;;;;2.47;1.60;;;20.90;50.40;;;;;;5033778;28;20834;-77
2023/05/03 13:51:12;;;;;;;3.40;1.47;;;20.60;51.20;;;;;;5033789;28;20456;-76
2023/05/03 13:53:40;;;;;;;2.03;1.53;;;20.50;52.10;;;;;;5033796;28;20500;-77
2023/05/03 13:56:08;;;;;;;2.20;1.77;;;20.40;52.60;;;;;;5033560;28;20468;-77
2023/05/03 13:58:36;;;;;;;3.03;2.20;;;20.70;51.80;;;;;;5033055;28;20447;-76
2023/05/03 14:01:03;;;;;;;2.50;1.60;;;20.90;52.10;;;;;;5033646;28;20550;-78
2023/05/03 14:03:29;;;;;;;2.30;1.80;;;21.00;51.20;;;;;;5033563;28;20477;-76
2023/05/03 14:05:56;;;;;;;3.20;1.63;;;21.30;51.30;;;;;;5033133;28;20992;-77
2023/05/03 14:08:23;;;;;;;3.07;1.90;;;21.10;50.50;;;;;;5033464;28;20448;-77
2023/05/03 14:10:50;;;;;;;2.53;1.43;;;21.40;51.40;;;;;;5033582;28;20501;-76
2023/05/03 14:13:18;;;;;;;2.10;1.37;;;21.70;47.70;;;;;;5033526;28;20443;-76
2023/05/03 14:15:45;;;;;;;2.47;1.33;;;21.90;48.80;;;;;;5033780;28;20444;-77
2023/05/03 14:18:13;;;;;;;1.83;1.33;;;22.00;48.60;;;;;;5033055;28;20940;-76
2023/05/03 14:20:39;;;;;;;2.50;1.60;;;21.50;49.40;;;;;;5033114;28;20936;-76
2023/05/03 14:23:06;;;;;;;1.67;1.17;;;21.50;50.70;;;;;;5033431;28;20490;-76
2023/05/03 14:25:33;;;;;;;2.40;1.87;;;21.40;49.70;;;;;;5033227;28;20483;-76
2023/05/03 14:27:59;;;;;;;2.57;1.60;;;21.10;50.10;;;;;;5033244;28;20468;-76
2023/05/03 14:30:27;;;;;;;3.27;1.43;;;21.00;50.10;;;;;;5033268;28;20822;-76
2023/05/03 14:32:54;;;;;;;2.47;1.20;;;20.80;49.60;;;;;;5033196;28;20461;-77
2023/05/03 14:35:21;;;;;;;2.10;1.33;;;20.70;50.10;;;;;;5033205;28;20451;-77
2023/05/03 14:37:48;;;;;;;2.20;1.50;;;20.90;50.30;;;;;;5033076;28;20471;-77
2023/05/03 14:40:16;;;;;;;2.27;1.30;;;21.00;49.60;;;;;;5033144;28;20444;-76
2023/05/03 14:42:43;;;;;;;2.00;1.33;;;21.30;49.40;;;;;;5032861;28;20844;-76
2023/05/03 14:45:13;;;;;;;1.93;1.20;;;21.70;48.40;;;;;;5032986;28;20825;-76
2023/05/03 14:47:41;;;;;;;2.10;1.40;;;22.00;48.70;;;;;;5033135;28;20474;-77
2023/05/03 14:50:09;;;;;;;2.00;1.37;;;22.10;47.10;;;;;;5033117;28;20447;-77
2023/05/03 14:52:36;;;;;;;2.13;1.60;;;22.40;47.80;;;;;;5033116;28;20451;-76
2023/05/03 14:55:03;;;;;;;2.40;1.30;;;22.70;46.40;;;;;;5033083;28;20448;-77
2023/05/03 14:57:31;;;;;;;2.10;1.53;;;22.90;46.30;;;;;;5032987;28;20474;-77
2023/05/03 15:00:00;;;;;;;1.87;1.27;;;22.70;46.70;;;;;;5033012;28;20452;-77
2023/05/03 15:02:27;;;;;;;1.70;1.00;;;22.90;45.70;;;;;;5032989;28;20448;-77
2023/05/03 15:04:55;;;;;;;2.17;1.30;;;22.70;47.00;;;;;;5032773;28;20802;-76
2023/05/03 15:07:22;;;;;;;1.97;1.43;;;22.40;47.20;;;;;;5032907;28;20839;-76
2023/05/03 15:09:48;;;;;;;2.10;1.33;;;21.50;48.30;;;;;;5035193;28;20501;-76
2023/05/03 15:12:16;;;;;;;1.83;1.37;;;21.30;49.50;;;;;;5036491;28;20944;-76
2023/05/03 15:14:42;;;;;;;2.33;1.40;;;21.50;48.80;;;;;;5036659;28;20451;-76
2023/05/03 15:17:09;;;;;;;1.80;1.10;;;22.30;49.00;;;;;;5036127;28;20992;-76
2023/05/03 15:19:36;;;;;;;2.50;1.67;;;23.40;46.10;;;;;;5036600;28;20573;-76
2023/05/03 15:22:04;;;;;;;2.30;1.47;;;23.70;44.10;;;;;;5036261;28;20944;-77
2023/05/03 15:24:30;;;;;;;1.80;1.23;;;23.40;44.20;;;;;;5037326;28;20497;-78
2023/05/03 15:27:01;;;;;;;1.90;1.03;;;24.00;43.60;;;;;;5036497;28;20995;-77
2023/05/03 15:29:28;;;;;;;1.87;0.93;;;24.40;42.40;;;;;;5037071;28;20927;-77
2023/05/03 15:31:54;;;;;;;1.90;1.30;;;25.00;42.30;;;;;;5036923;28;20520;-77
2023/05/03 15:34:21;;;;;;;3.00;1.67;;;24.60;41.30;;;;;;5036749;28;20451;-76
2023/05/03 15:36:48;;;;;;;1.80;1.30;;;23.80;42.50;;;;;;5037262;28;20463;-77
2023/05/03 15:39:16;;;;;;;2.10;1.40;;;23.20;44.30;;;;;;5037116;28;20509;-77
2023/05/03 15:41:44;;;;;;;1.70;1.20;;;23.00;44.60;;;;;;5036700;28;20506;-76
2023/05/03 15:44:13;;;;;;;1.90;1.10;;;22.60;46.90;;;;;;5036466;28;20960;-77
2023/05/03 15:46:40;;;;;;;2.20;1.30;;;22.00;46.60;;;;;;5036242;28;20501;-76
2023/05/03 15:49:07;;;;;;;2.10;1.40;;;21.50;46.30;;;;;;5036532;28;20517;-77
2023/05/03 15:51:34;;;;;;;1.97;1.27;;;21.10;47.50;;;;;;5036022;28;21008;-77
2023/05/03 15:54:01;;;;;;;2.53;1.40;;;20.90;48.00;;;;;;5036168;28;20451;-77
2023/05/03 15:56:30;;;;;;;2.10;1.60;;;20.70;48.40;;;;;;5037138;28;20556;-77
2023/05/03 15:58:56;;;;;;;1.70;1.13;;;20.70;48.40;;;;;;5036276;28;20470;-77
2023/05/03 16:01:23;;;;;;;2.87;1.30;;;20.60;47.70;;;;;;5036244;28;20443;-77
2023/05/03 16:03:50;;;;;;;2.00;1.40;;;20.30;48.00;;;;;;5036561;28;20486;-77
2023/05/03 16:06:17;;;;;;;3.60;1.40;;;20.20;48.00;;;;;;5035928;28;20493;-77
2023/05/03 16:08:44;;;;;;;2.00;1.50;;;20.00;48.70;;;;;;5035973;28;20944;-78
2023/05/03 16:11:11;;;;;;;2.23;1.50;;;19.90;48.90;;;;;;5036061;28;20937;-77
2023/05/03 16:13:39;;;;;;;1.90;1.20;;;20.10;48.90;;;;;;5035798;28;20959;-77
2023/05/03 16:16:27;;;;;;;2.10;1.40;;;20.20;49.30;;;;;;5036612;28;20525;-77
2023/05/03 16:18:54;;;;;;;1.80;1.10;;;20.10;48.90;;;;;;4993966;28;21017;-76
2023/05/03 16:21:20;;;;;;;2.10;1.40;;;20.20;48.90;;;;;;4994788;28;20540;-75
2023/05/03 16:23:47;;;;;;;1.70;1.10;;;20.10;48.80;;;;;;4995478;28;20457;-75
2023/05/03 16:26:14;;;;;;;1.80;1.10;;;20.10;49.00;;;;;;4995919;28;20491;-75
2023/05/03 16:28:42;;;;;;;2.47;1.43;;;20.10;50.00;;;;;;4995344;28;20477;-76
2023/05/03 16:31:09;;;;;;;2.40;1.20;;;20.10;49.50;;;;;;4995462;28;20511;-75
2023/05/03 16:33:36;;;;;;;1.80;1.17;;;20.00;49.40;;;;;;4995603;28;20468;-76
2023/05/03 16:36:02;;;;;;;2.50;1.20;;;20.10;48.40;;;;;;4995366;28;20445;-76
2023/05/03 16:38:30;;;;;;;1.80;1.20;;;19.70;48.80;;;;;;4995377;28;20466;-76
2023/05/03 16:40:58;;;;;;;4.70;1.30;;;19.50;49.90;;;;;;4995638;28;20491;-76
2023/05/03 16:43:25;;;;;;;1.77;1.30;;;19.50;50.10;;;;;;4995308;28;20504;-76
2023/05/03 16:45:58;;;;;;;2.63;1.20;;;19.60;49.80;;;;;;4994978;28;20477;-75
2023/05/03 16:48:25;;;;;;;1.80;1.30;;;19.60;49.70;;;;;;4995191;28;20512;-74
2023/05/03 16:50:52;;;;;;;2.07;1.27;;;19.90;49.60;;;;;;4995180;28;20537;-74
2023/05/03 16:53:19;;;;;;;2.97;1.40;;;20.00;48.90;;;;;;4995546;28;20459;-76